Weather at Juan Santamaria International Airport

Public forecast

Using degrees Celsius for public forecast. Weather courtesy of forecast.io.

Current aviation weather report (METAR) for Juan Santamaria International Airport

Retrieved 2020/09/23 10:00 UTC (5 minutes ago):

MROC 231000Z VRB02KT CAVOK 20/18 A2996 NOSIG

Aviation forecast (TAF) for Juan Santamaria International Airport

Retrieved 2020/09/23 06:09 UTC (4 hours ago):

TAF MROC 230500Z 2306/2406 05005KT 9999 FEW020 TX28/2318Z TN19/2310Z BECMG 2315/2318 25008KT TEMPO 2319/2323 3000 TSRA SCT015CB BKN030 TEMPO 2402/2406 VRB02KT 3000 BR BKN010